Portada
METAR-TAF:

METAR-TAF

Aeroports :

Malakula, Vanuatu

latitud: 16-27-26S, longitud: 167-49-42E, altitud: 2 m

METAR: manca

Hora: 11:02 (00:02 UTC)

Pronòstic

L'informe es va fer fa 1 hora i 42 minuts, a les 22:20 UTC
Pronòstic vàlid del 30 a les 00 UTC al 30 a les 24 UTC
Vent 5 kt del Est
Visibilitat: 9000 m
Núvols disperses a una alçada de 2000 ft
Cel ennuvolat a una alçada de 1800 ft
xàfecs de pluja

TAF: NVSL 292220Z 3000/3024 09005KT 9999 SCT020 INTER 3000/3006 9000 -SHRA BKN018

Observacions i pronòstics meteorològics de més de 4000 aeroports (METAR i TAF).

Les estacions disponibles són els punts grocs i vermells al mapa.

Posi el ratolí al punt desitjat per veure el nom de l'estació.

Feu clic per veure les observacions i els pronòstics meteorològics.

Per canviar el mapa: feu clic els botons verds amb una creu de color negre per apropar; al botó verd amb un guió per allunyar la imatge; o en les fletxes verdes per a mapes adjacents.


METAR-TAF: